Time;durP1;ratioP1;P1;durP2;ratioP2;P2;SDS_P1;SDS_P2;PMS_P1;PMS_P2;Temp;Humidity;BMP_temperature;BMP_pressure;BME280_temperature;BME280_humidity;BME280_pressure;Samples;Min_cycle;Max_cycle;Signal;HPM_P1;HPM_P2
2023/12/10 00:01:50;;;;;;;11.20;1.45;;;;;;;;;;5089489;28;20102;-79
2023/12/10 00:04:17;;;;;;;10.43;1.65;;;;;;;;;;5050276;28;20055;-79
2023/12/10 00:06:44;;;;;;;7.63;1.75;;;;;;;;;;5074335;28;20075;-79
2023/12/10 00:09:11;;;;;;;10.98;1.58;;;;;;;;;;5073741;28;20048;-79
2023/12/10 00:11:38;;;;;;;11.27;2.28;;;;;;;;;;5057806;28;20054;-79
2023/12/10 00:14:05;;;;;;;9.38;1.75;;;;;;;;;;5057186;28;20102;-79
2023/12/10 00:16:32;;;;;;;13.77;2.65;;;;;;;;;;5039092;28;20049;-79
2023/12/10 00:18:59;;;;;;;9.98;1.92;;;;;;;;;;5073917;28;20484;-79
2023/12/10 00:21:26;;;;;;;16.85;2.15;;;;;;;;;;5051015;28;20514;-79
2023/12/10 00:23:53;;;;;;;13.57;2.40;;;;;;;;;;5067006;28;20053;-80
2023/12/10 00:26:20;;;;;;;15.20;2.03;;;;;;;;;;5067983;28;20145;-79
2023/12/10 00:28:46;;;;;;;11.77;2.17;;;;;;;;;;5052491;28;20083;-79
2023/12/10 00:31:13;;;;;;;17.67;2.90;;;;;;;;;;5052279;28;20087;-79
2023/12/10 00:33:40;;;;;;;11.65;2.28;;;;;;;;;;5048325;28;20071;-79
2023/12/10 00:36:08;;;;;;;14.25;2.13;;;;;;;;;;5072176;28;20498;-79
2023/12/10 00:38:35;;;;;;;18.33;2.42;;;;;;;;;;5036648;28;20049;-79
2023/12/10 00:41:02;;;;;;;13.05;2.00;;;;;;;;;;5082517;28;20064;-79
2023/12/10 00:43:29;;;;;;;10.90;2.42;;;;;;;;;;5101681;28;20526;-79
2023/12/10 00:45:56;;;;;;;18.30;2.38;;;;;;;;;;5052214;28;20079;-79
2023/12/10 00:48:23;;;;;;;20.83;2.83;;;;;;;;;;5055455;28;20083;-79
2023/12/10 00:50:50;;;;;;;16.70;3.30;;;;;;;;;;5052985;28;20080;-78
2023/12/10 00:53:16;;;;;;;19.35;3.13;;;;;;;;;;5089096;28;20048;-79
2023/12/10 00:55:44;;;;;;;15.95;2.22;;;;;;;;;;5089611;28;20102;-78
2023/12/10 00:58:13;;;;;;;17.00;2.70;;;;;;;;;;5086001;28;20127;-79
2023/12/10 01:00:41;;;;;;;12.63;3.03;;;;;;;;;;5093326;28;20087;-79
2023/12/10 01:03:08;;;;;;;20.35;3.15;;;;;;;;;;5060368;28;20525;-79
2023/12/10 01:05:35;;;;;;;14.98;2.92;;;;;;;;;;5056788;28;20063;-79
2023/12/10 01:08:03;;;;;;;23.98;4.07;;;;;;;;;;5075575;28;20053;-79
2023/12/10 01:10:30;;;;;;;9.63;1.92;;;;;;;;;;5064808;28;20060;-79
2023/12/10 01:12:57;;;;;;;18.20;3.13;;;;;;;;;;5078111;28;20067;-79
2023/12/10 01:15:30;;;;;;;16.17;2.40;;;;;;;;;;5094715;28;20053;-79
2023/12/10 01:18:00;;;;;;;16.58;3.13;;;;;;;;;;5094787;28;20148;-79
2023/12/10 01:20:29;;;;;;;23.27;3.47;;;;;;;;;;5058279;28;20080;-79
2023/12/10 01:22:56;;;;;;;24.38;3.63;;;;;;;;;;5059294;28;20128;-79
2023/12/10 01:25:26;;;;;;;16.38;4.00;;;;;;;;;;5074166;28;20057;-79
2023/12/10 01:27:53;;;;;;;11.93;2.30;;;;;;;;;;5048324;28;20477;-78
2023/12/10 01:30:23;;;;;;;21.02;3.22;;;;;;;;;;5060624;28;20057;-79
2023/12/10 01:32:52;;;;;;;14.77;3.20;;;;;;;;;;5044556;28;20060;-78
2023/12/10 01:35:19;;;;;;;22.33;3.38;;;;;;;;;;5060662;28;20562;-78
2023/12/10 01:37:46;;;;;;;20.20;3.28;;;;;;;;;;5046990;28;20400;-79
2023/12/10 01:40:13;;;;;;;23.50;3.50;;;;;;;;;;5080836;28;20514;-78
2023/12/10 01:42:41;;;;;;;19.38;3.97;;;;;;;;;;5059810;28;20271;-78
2023/12/10 01:45:09;;;;;;;17.08;2.42;;;;;;;;;;5045188;28;20091;-79
2023/12/10 01:47:36;;;;;;;18.20;3.33;;;;;;;;;;5059001;28;20052;-79
2023/12/10 01:50:04;;;;;;;16.38;2.92;;;;;;;;;;5064388;28;20063;-78
2023/12/10 01:52:31;;;;;;;19.10;3.15;;;;;;;;;;5042264;28;20111;-79
2023/12/10 01:54:59;;;;;;;18.90;3.20;;;;;;;;;;5056749;28;20049;-78
2023/12/10 01:57:27;;;;;;;12.65;2.72;;;;;;;;;;5058014;28;20056;-79
2023/12/10 01:59:54;;;;;;;14.07;2.80;;;;;;;;;;5057981;28;20122;-78
2023/12/10 02:02:21;;;;;;;20.98;3.17;;;;;;;;;;5057262;28;20056;-79
2023/12/10 02:04:47;;;;;;;16.55;2.83;;;;;;;;;;5038896;28;20064;-79
2023/12/10 02:07:14;;;;;;;17.52;4.07;;;;;;;;;;5074459;28;20056;-79
2023/12/10 02:09:41;;;;;;;16.58;3.10;;;;;;;;;;5044883;28;20088;-78
2023/12/10 02:12:08;;;;;;;21.95;2.92;;;;;;;;;;5077644;28;20053;-78
2023/12/10 02:14:35;;;;;;;16.33;3.00;;;;;;;;;;5057407;28;20048;-79
2023/12/10 02:17:02;;;;;;;18.85;4.05;;;;;;;;;;5074471;28;20068;-79
2023/12/10 02:19:28;;;;;;;12.82;2.60;;;;;;;;;;5094019;28;20056;-78
2023/12/10 02:21:55;;;;;;;14.15;2.60;;;;;;;;;;5093348;28;20080;-78
2023/12/10 02:24:31;;;;;;;15.00;2.55;;;;;;;;;;5057038;28;20049;-79
2023/12/10 02:26:58;;;;;;;15.88;2.80;;;;;;;;;;5044523;28;20052;-78
2023/12/10 02:29:25;;;;;;;17.42;2.53;;;;;;;;;;5073978;28;20052;-78
2023/12/10 02:31:52;;;;;;;14.65;2.03;;;;;;;;;;5059983;28;20139;-78
2023/12/10 02:34:18;;;;;;;20.83;3.53;;;;;;;;;;5087954;28;20045;-78
2023/12/10 02:36:46;;;;;;;19.73;2.65;;;;;;;;;;5074127;28;20053;-78
2023/12/10 02:39:13;;;;;;;17.73;3.28;;;;;;;;;;5072586;28;20053;-79
2023/12/10 02:41:39;;;;;;;14.00;2.60;;;;;;;;;;5072140;28;20054;-78
2023/12/10 02:44:06;;;;;;;17.33;3.00;;;;;;;;;;5092270;28;20049;-78
2023/12/10 02:46:33;;;;;;;16.58;2.55;;;;;;;;;;5074727;28;20502;-78
2023/12/10 02:49:00;;;;;;;12.98;3.13;;;;;;;;;;5057200;28;20052;-78
2023/12/10 02:51:26;;;;;;;13.23;2.25;;;;;;;;;;5090366;28;20530;-78
2023/12/10 02:53:53;;;;;;;11.18;1.70;;;;;;;;;;5054111;28;20080;-78
2023/12/10 02:56:20;;;;;;;10.00;1.98;;;;;;;;;;5036991;28;20060;-78
2023/12/10 02:58:47;;;;;;;10.05;1.75;;;;;;;;;;5051582;28;20079;-78
2023/12/10 03:01:14;;;;;;;12.25;1.63;;;;;;;;;;5075796;28;20075;-78
2023/12/10 03:03:40;;;;;;;5.80;1.90;;;;;;;;;;5091250;28;20075;-78
2023/12/10 03:06:07;;;;;;;3.25;1.38;;;;;;;;;;5071775;28;20229;-78
2023/12/10 03:08:34;;;;;;;10.07;1.40;;;;;;;;;;5090042;28;20079;-78
2023/12/10 03:11:01;;;;;;;6.90;1.08;;;;;;;;;;5066009;28;20494;-78
2023/12/10 03:13:28;;;;;;;8.07;1.40;;;;;;;;;;5088703;28;20537;-78
2023/12/10 03:15:54;;;;;;;10.88;2.13;;;;;;;;;;5038828;28;20489;-78
2023/12/10 03:18:21;;;;;;;6.72;1.05;;;;;;;;;;5088489;28;20507;-78
2023/12/10 03:20:48;;;;;;;6.43;1.23;;;;;;;;;;5087169;28;20053;-78
2023/12/10 03:23:16;;;;;;;7.53;1.50;;;;;;;;;;5075483;28;20059;-78
2023/12/10 03:25:43;;;;;;;7.18;1.40;;;;;;;;;;5056134;28;20057;-78
2023/12/10 03:28:10;;;;;;;8.68;1.42;;;;;;;;;;5064532;28;20053;-78
2023/12/10 03:30:37;;;;;;;10.20;1.35;;;;;;;;;;5071820;28;20055;-78
2023/12/10 03:33:04;;;;;;;9.98;1.40;;;;;;;;;;5090801;28;20112;-78
2023/12/10 03:35:31;;;;;;;7.47;1.15;;;;;;;;;;5093312;28;20075;-78
2023/12/10 03:37:57;;;;;;;9.60;1.90;;;;;;;;;;5072329;28;20059;-78
2023/12/10 03:40:24;;;;;;;6.28;2.00;;;;;;;;;;5068902;28;20063;-78
2023/12/10 03:42:51;;;;;;;8.30;1.60;;;;;;;;;;5076648;28;20133;-78
2023/12/10 03:45:18;;;;;;;3.40;1.17;;;;;;;;;;5074822;28;20048;-78
2023/12/10 03:47:46;;;;;;;9.18;2.05;;;;;;;;;;5070978;28;20061;-78
2023/12/10 03:50:14;;;;;;;11.55;1.80;;;;;;;;;;5074313;28;20063;-78
2023/12/10 03:52:41;;;;;;;9.50;1.63;;;;;;;;;;5074325;28;20087;-78
2023/12/10 03:55:08;;;;;;;10.95;1.90;;;;;;;;;;5057383;28;20087;-78
2023/12/10 03:57:35;;;;;;;11.63;2.03;;;;;;;;;;5065978;28;20060;-78
2023/12/10 04:00:04;;;;;;;15.27;1.80;;;;;;;;;;5040556;28;20048;-78
2023/12/10 04:02:31;;;;;;;13.15;1.50;;;;;;;;;;5073979;28;20052;-79
2023/12/10 04:04:58;;;;;;;16.83;2.65;;;;;;;;;;5089464;28;20498;-78
2023/12/10 04:07:25;;;;;;;13.00;2.28;;;;;;;;;;5090126;28;20541;-78
2023/12/10 04:09:52;;;;;;;10.60;2.70;;;;;;;;;;5090421;28;20052;-78
2023/12/10 04:12:18;;;;;;;14.93;2.95;;;;;;;;;;5036801;28;20122;-78
2023/12/10 04:14:47;;;;;;;12.23;1.83;;;;;;;;;;5066292;28;20056;-78
2023/12/10 04:17:13;;;;;;;21.30;4.43;;;;;;;;;;5053087;28;20061;-78
2023/12/10 04:19:41;;;;;;;14.10;2.40;;;;;;;;;;5069327;28;20053;-78
2023/12/10 04:22:08;;;;;;;8.75;1.70;;;;;;;;;;5055800;28;20055;-78
2023/12/10 04:24:35;;;;;;;10.93;1.92;;;;;;;;;;5061965;28;20502;-78
2023/12/10 04:27:02;;;;;;;9.77;2.33;;;;;;;;;;5066791;28;20049;-77
2023/12/10 04:29:28;;;;;;;6.53;1.45;;;;;;;;;;5051101;28;20107;-77
2023/12/10 04:31:55;;;;;;;9.98;1.75;;;;;;;;;;5054287;28;20480;-77
2023/12/10 04:34:22;;;;;;;11.60;2.15;;;;;;;;;;5090901;28;20448;-77
2023/12/10 04:36:49;;;;;;;10.80;2.25;;;;;;;;;;5090904;28;20131;-77
2023/12/10 04:39:16;;;;;;;15.82;2.38;;;;;;;;;;5070602;28;20079;-77
2023/12/10 04:41:43;;;;;;;12.07;2.17;;;;;;;;;;5070730;28;20052;-77
2023/12/10 04:44:09;;;;;;;9.48;1.50;;;;;;;;;;5073691;28;20460;-77
2023/12/10 04:46:36;;;;;;;13.80;2.47;;;;;;;;;;5074174;28;20060;-78
2023/12/10 04:49:03;;;;;;;13.48;1.95;;;;;;;;;;5056542;28;20079;-77
2023/12/10 04:51:30;;;;;;;10.20;1.85;;;;;;;;;;5090726;28;20063;-77
2023/12/10 04:53:57;;;;;;;13.00;1.60;;;;;;;;;;5090269;28;20139;-77
2023/12/10 04:56:24;;;;;;;10.95;2.40;;;;;;;;;;5090414;28;20518;-77
2023/12/10 04:58:51;;;;;;;5.90;1.80;;;;;;;;;;5054520;28;20060;-77
2023/12/10 05:01:17;;;;;;;11.98;2.38;;;;;;;;;;5053359;28;20107;-78
2023/12/10 05:03:44;;;;;;;11.05;1.98;;;;;;;;;;5053187;28;20052;-78
2023/12/10 05:06:11;;;;;;;6.78;1.67;;;;;;;;;;5090072;28;20127;-77
2023/12/10 05:08:39;;;;;;;10.50;1.63;;;;;;;;;;5090302;28;20060;-77
2023/12/10 05:11:05;;;;;;;14.27;1.63;;;;;;;;;;5056463;28;20054;-77
2023/12/10 05:13:33;;;;;;;13.55;1.67;;;;;;;;;;5070205;28;20091;-77
2023/12/10 05:15:59;;;;;;;12.50;2.78;;;;;;;;;;5053949;28;20080;-77
2023/12/10 05:18:27;;;;;;;11.23;2.15;;;;;;;;;;5036698;28;20061;-78
2023/12/10 05:20:54;;;;;;;10.52;1.35;;;;;;;;;;5055024;28;20059;-77
2023/12/10 05:23:21;;;;;;;11.68;1.67;;;;;;;;;;5090134;28;20060;-77
2023/12/10 05:25:48;;;;;;;14.02;2.28;;;;;;;;;;5089253;28;20044;-77
2023/12/10 05:28:15;;;;;;;10.32;2.00;;;;;;;;;;5073053;28;20503;-77
2023/12/10 05:30:42;;;;;;;13.05;2.47;;;;;;;;;;5089924;28;20055;-78
2023/12/10 05:33:08;;;;;;;8.80;2.30;;;;;;;;;;5089661;28;20078;-77
2023/12/10 05:35:35;;;;;;;12.50;2.20;;;;;;;;;;5089306;28;20525;-78
2023/12/10 05:38:03;;;;;;;14.13;2.22;;;;;;;;;;5089442;28;20110;-78
2023/12/10 05:40:30;;;;;;;9.23;1.73;;;;;;;;;;5089702;28;20049;-78
2023/12/10 05:42:58;;;;;;;8.63;1.42;;;;;;;;;;5072004;28;20057;-77
2023/12/10 05:45:27;;;;;;;9.18;1.77;;;;;;;;;;5088935;28;20049;-77
2023/12/10 05:47:53;;;;;;;9.80;1.90;;;;;;;;;;5054375;28;20426;-77
2023/12/10 05:50:21;;;;;;;11.18;2.88;;;;;;;;;;5089290;28;20052;-77
2023/12/10 05:52:47;;;;;;;11.45;2.92;;;;;;;;;;5090331;28;20502;-78
2023/12/10 05:55:14;;;;;;;10.93;2.00;;;;;;;;;;5090731;28;20048;-78
2023/12/10 05:57:41;;;;;;;8.90;1.65;;;;;;;;;;5074070;28;20544;-79
2023/12/10 06:00:08;;;;;;;12.40;1.70;;;;;;;;;;5057013;28;20061;-78
2023/12/10 06:02:35;;;;;;;10.30;1.40;;;;;;;;;;5090135;28;20417;-78
2023/12/10 06:05:02;;;;;;;13.55;3.10;;;;;;;;;;5089572;28;20102;-78
2023/12/10 06:07:28;;;;;;;10.10;1.90;;;;;;;;;;5090479;28;20174;-78
2023/12/10 06:09:55;;;;;;;8.80;1.60;;;;;;;;;;5071696;28;20464;-78
2023/12/10 06:12:23;;;;;;;7.75;1.33;;;;;;;;;;5089810;28;20082;-78
2023/12/10 06:14:50;;;;;;;10.98;2.10;;;;;;;;;;5090050;28;20111;-78
2023/12/10 06:17:16;;;;;;;11.13;2.60;;;;;;;;;;5090111;28;20502;-79
2023/12/10 06:19:43;;;;;;;10.60;1.40;;;;;;;;;;5089939;28;20461;-78
2023/12/10 06:22:11;;;;;;;13.95;1.70;;;;;;;;;;5053155;28;20064;-78
2023/12/10 06:24:37;;;;;;;27.20;2.17;;;;;;;;;;5049005;28;20106;-78
2023/12/10 06:27:04;;;;;;;8.68;2.00;;;;;;;;;;5072397;28;20060;-78
2023/12/10 06:29:31;;;;;;;9.85;2.13;;;;;;;;;;5089974;28;20079;-78
2023/12/10 06:31:58;;;;;;;10.65;1.38;;;;;;;;;;5090341;28;20524;-78
2023/12/10 06:34:25;;;;;;;13.48;1.60;;;;;;;;;;5074006;28;20048;-78
2023/12/10 06:36:52;;;;;;;8.30;1.30;;;;;;;;;;5074244;28;20068;-78
2023/12/10 06:39:18;;;;;;;8.73;1.75;;;;;;;;;;5074231;28;20056;-78
2023/12/10 06:41:45;;;;;;;9.32;1.38;;;;;;;;;;5073693;28;20052;-78
2023/12/10 06:44:15;;;;;;;10.75;1.77;;;;;;;;;;5052813;28;20297;-78
2023/12/10 06:46:41;;;;;;;12.60;1.85;;;;;;;;;;5065327;28;20056;-78
2023/12/10 06:49:08;;;;;;;7.95;1.60;;;;;;;;;;5072160;28;20117;-78
2023/12/10 06:51:35;;;;;;;5.97;1.15;;;;;;;;;;5088581;28;20491;-78
2023/12/10 06:54:02;;;;;;;10.80;2.53;;;;;;;;;;5071170;28;20140;-78
2023/12/10 06:56:29;;;;;;;9.05;1.50;;;;;;;;;;5088731;28;20044;-77
2023/12/10 06:58:56;;;;;;;11.70;1.73;;;;;;;;;;5088939;28;20056;-78
2023/12/10 07:01:22;;;;;;;13.18;2.15;;;;;;;;;;5066909;28;20056;-78
2023/12/10 07:03:49;;;;;;;16.27;2.03;;;;;;;;;;5070343;28;20567;-78
2023/12/10 07:06:16;;;;;;;10.18;1.60;;;;;;;;;;5068599;28;20071;-78
2023/12/10 07:08:43;;;;;;;13.85;1.73;;;;;;;;;;5039196;28;20058;-78
2023/12/10 07:11:10;;;;;;;9.05;1.80;;;;;;;;;;5088506;28;20052;-78
2023/12/10 07:13:37;;;;;;;9.95;2.40;;;;;;;;;;5072530;28;20061;-78
2023/12/10 07:16:05;;;;;;;10.50;2.15;;;;;;;;;;5071731;28;20056;-78
2023/12/10 07:18:31;;;;;;;10.25;2.15;;;;;;;;;;5051641;28;20052;-78
2023/12/10 07:20:58;;;;;;;12.48;2.10;;;;;;;;;;5067949;28;20057;-78
2023/12/10 07:23:25;;;;;;;9.18;1.50;;;;;;;;;;5082130;28;20045;-78
2023/12/10 07:25:52;;;;;;;10.88;2.28;;;;;;;;;;5052575;28;20130;-78
2023/12/10 07:28:18;;;;;;;8.88;1.95;;;;;;;;;;5068139;28;20126;-78
2023/12/10 07:30:45;;;;;;;13.07;2.38;;;;;;;;;;5054951;28;20052;-78
2023/12/10 07:33:12;;;;;;;11.48;2.13;;;;;;;;;;5088526;28;20088;-78
2023/12/10 07:35:39;;;;;;;7.35;1.90;;;;;;;;;;5080929;28;20049;-78
2023/12/10 07:38:06;;;;;;;13.68;1.60;;;;;;;;;;5068184;28;20061;-78
2023/12/10 07:40:33;;;;;;;13.57;1.75;;;;;;;;;;5067414;28;20052;-78
2023/12/10 07:42:59;;;;;;;8.15;1.45;;;;;;;;;;5056303;28;20056;-78
2023/12/10 07:45:26;;;;;;;11.30;1.95;;;;;;;;;;5069393;28;20510;-79
2023/12/10 07:47:53;;;;;;;12.25;1.88;;;;;;;;;;5055774;28;20052;-78
2023/12/10 07:50:20;;;;;;;9.10;1.73;;;;;;;;;;5072084;28;20056;-78
2023/12/10 07:52:47;;;;;;;8.88;1.55;;;;;;;;;;5063136;28;20063;-78
2023/12/10 07:55:14;;;;;;;9.73;1.73;;;;;;;;;;5051088;28;20091;-78
2023/12/10 07:57:40;;;;;;;8.95;2.05;;;;;;;;;;5060460;28;20458;-78
2023/12/10 08:00:08;;;;;;;6.63;1.73;;;;;;;;;;5079222;28;20469;-77
2023/12/10 08:02:34;;;;;;;10.60;1.95;;;;;;;;;;5070969;28;20048;-77
2023/12/10 08:05:01;;;;;;;12.75;2.08;;;;;;;;;;5053954;28;20075;-77
2023/12/10 08:07:28;;;;;;;11.43;2.85;;;;;;;;;;5071021;28;20052;-77
2023/12/10 08:09:55;;;;;;;18.02;3.35;;;;;;;;;;5087933;28;20056;-77
2023/12/10 08:12:22;;;;;;;8.98;2.45;;;;;;;;;;5041017;28;20091;-78
2023/12/10 08:14:49;;;;;;;8.57;1.67;;;;;;;;;;5069612;28;20054;-78
2023/12/10 08:17:16;;;;;;;10.07;2.13;;;;;;;;;;5044828;28;20056;-78
2023/12/10 08:19:43;;;;;;;7.75;2.00;;;;;;;;;;5064607;28;20099;-78
2023/12/10 08:22:13;;;;;;;10.93;2.45;;;;;;;;;;5065035;28;20068;-78
2023/12/10 08:24:40;;;;;;;9.30;1.70;;;;;;;;;;5071317;28;20075;-78
2023/12/10 08:27:07;;;;;;;13.30;1.80;;;;;;;;;;5038436;28;20049;-78
2023/12/10 08:29:34;;;;;;;11.30;2.03;;;;;;;;;;5051619;28;20049;-78
2023/12/10 08:32:00;;;;;;;9.68;1.70;;;;;;;;;;5037665;28;20053;-78
2023/12/10 08:34:27;;;;;;;7.68;1.55;;;;;;;;;;5088904;28;20060;-78
2023/12/10 08:36:54;;;;;;;5.75;1.48;;;;;;;;;;5089050;28;20048;-78
2023/12/10 08:39:21;;;;;;;11.80;1.45;;;;;;;;;;5083932;28;20485;-78
2023/12/10 08:41:48;;;;;;;14.00;2.35;;;;;;;;;;5060742;28;20049;-78
2023/12/10 08:44:14;;;;;;;11.00;1.90;;;;;;;;;;5061120;28;20057;-78
2023/12/10 08:46:41;;;;;;;8.88;2.35;;;;;;;;;;5068380;28;20387;-78
2023/12/10 08:49:08;;;;;;;10.57;2.28;;;;;;;;;;5072536;28;20525;-78
2023/12/10 08:51:35;;;;;;;13.98;2.97;;;;;;;;;;5071991;28;20148;-78
2023/12/10 08:54:02;;;;;;;10.25;2.05;;;;;;;;;;5088144;28;20052;-78
2023/12/10 08:56:29;;;;;;;8.75;1.88;;;;;;;;;;5088972;28;20548;-78
2023/12/10 08:58:56;;;;;;;9.80;2.22;;;;;;;;;;5086887;28;20053;-78
2023/12/10 09:01:23;;;;;;;8.60;1.77;;;;;;;;;;5061956;28;20103;-78
2023/12/10 09:03:50;;;;;;;10.52;2.05;;;;;;;;;;5052761;28;20060;-78
2023/12/10 09:06:17;;;;;;;9.77;1.85;;;;;;;;;;5075243;28;20431;-78
2023/12/10 09:08:44;;;;;;;20.77;2.22;;;;;;;;;;5052290;28;20087;-78
2023/12/10 09:11:10;;;;;;;13.82;3.20;;;;;;;;;;5072436;28;20494;-78
2023/12/10 09:13:37;;;;;;;11.93;1.80;;;;;;;;;;5060128;28;20364;-78
2023/12/10 09:16:06;;;;;;;8.98;2.28;;;;;;;;;;5070338;28;20064;-78
2023/12/10 09:18:33;;;;;;;11.48;2.28;;;;;;;;;;5043827;28;20058;-78
2023/12/10 09:21:00;;;;;;;12.23;2.35;;;;;;;;;;5073762;28;20044;-78
2023/12/10 09:23:27;;;;;;;9.02;1.38;;;;;;;;;;5059053;28;20052;-78
2023/12/10 09:25:54;;;;;;;8.85;2.20;;;;;;;;;;5091767;28;20101;-77
2023/12/10 09:28:21;;;;;;;6.50;1.38;;;;;;;;;;5074930;28;20063;-78
2023/12/10 09:30:48;;;;;;;8.30;1.50;;;;;;;;;;5072104;28;20087;-78
2023/12/10 09:33:15;;;;;;;8.35;2.08;;;;;;;;;;5091955;28;20052;-79
2023/12/10 09:35:41;;;;;;;4.93;1.50;;;;;;;;;;5092298;28;20048;-78
2023/12/10 09:38:08;;;;;;;6.00;1.50;;;;;;;;;;5091387;28;20049;-78
2023/12/10 09:40:35;;;;;;;10.00;1.45;;;;;;;;;;5056690;28;20052;-78
2023/12/10 09:43:02;;;;;;;6.15;1.67;;;;;;;;;;5058979;28;20056;-78
2023/12/10 09:45:29;;;;;;;9.02;1.85;;;;;;;;;;5056430;28;20083;-78
2023/12/10 09:47:56;;;;;;;9.18;1.33;;;;;;;;;;5072943;28;20121;-78
2023/12/10 09:50:23;;;;;;;6.97;1.25;;;;;;;;;;5042580;28;20064;-78
2023/12/10 09:52:50;;;;;;;9.27;2.22;;;;;;;;;;5059573;28;20060;-78
2023/12/10 09:55:17;;;;;;;10.48;1.77;;;;;;;;;;5091154;28;20060;-78
2023/12/10 09:57:43;;;;;;;7.70;2.28;;;;;;;;;;5075387;28;20060;-78
2023/12/10 10:00:11;;;;;;;7.70;1.45;;;;;;;;;;5075944;28;20053;-78
2023/12/10 10:02:38;;;;;;;7.93;1.17;;;;;;;;;;5054066;28;20106;-78
2023/12/10 10:05:07;;;;;;;10.40;1.65;;;;;;;;;;5039396;28;20429;-78
2023/12/10 10:07:35;;;;;;;8.32;1.70;;;;;;;;;;5058987;28;20064;-78
2023/12/10 10:10:05;;;;;;;9.32;2.20;;;;;;;;;;5060994;28;20060;-78
2023/12/10 10:12:33;;;;;;;10.35;2.05;;;;;;;;;;5074737;28;20558;-78
2023/12/10 10:15:00;;;;;;;4.65;1.55;;;;;;;;;;5085777;28;20069;-78
2023/12/10 10:17:28;;;;;;;8.27;1.38;;;;;;;;;;5057066;28;20049;-78
2023/12/10 10:19:56;;;;;;;6.88;1.27;;;;;;;;;;5055433;28;20118;-78
2023/12/10 10:22:24;;;;;;;12.25;2.38;;;;;;;;;;5055774;28;20413;-78
2023/12/10 10:24:54;;;;;;;6.30;0.95;;;;;;;;;;5059129;28;20063;-78
2023/12/10 10:27:22;;;;;;;8.88;2.80;;;;;;;;;;5075175;28;20414;-78
2023/12/10 10:29:53;;;;;;;4.65;1.13;;;;;;;;;;5058153;28;20139;-78
2023/12/10 10:32:21;;;;;;;6.93;1.60;;;;;;;;;;5056759;28;20057;-78
2023/12/10 10:34:48;;;;;;;6.93;1.17;;;;;;;;;;5055964;28;20048;-78
2023/12/10 10:37:16;;;;;;;8.80;1.50;;;;;;;;;;5054819;28;20060;-78
2023/12/10 10:39:44;;;;;;;7.43;1.42;;;;;;;;;;5054492;28;20105;-78
2023/12/10 10:42:12;;;;;;;11.23;2.58;;;;;;;;;;5057783;28;20459;-78
2023/12/10 10:44:39;;;;;;;7.40;1.50;;;;;;;;;;5074143;28;20048;-78
2023/12/10 10:47:06;;;;;;;12.38;2.55;;;;;;;;;;5073153;28;20071;-78
2023/12/10 10:49:47;;;;;;;9.23;1.60;;;;;;;;;;5053383;28;20053;-78
2023/12/10 10:52:34;;;;;;;12.13;3.03;;;;;;;;;;5041552;28;20044;-78
2023/12/10 10:55:02;;;;;;;6.53;1.92;;;;;;;;;;5072230;28;20503;-78
2023/12/10 10:57:34;;;;;;;11.60;2.97;;;;;;;;;;5037093;28;20045;-78
2023/12/10 11:00:17;;;;;;;12.57;3.90;;;;;;;;;;5054776;28;20059;-78
2023/12/10 11:02:53;;;;;;;10.90;3.40;;;;;;;;;;5053840;28;20293;-78
2023/12/10 11:05:32;;;;;;;11.30;3.53;;;;;;;;;;5053162;28;20057;-78
2023/12/10 11:08:00;;;;;;;7.85;3.15;;;;;;;;;;5071521;28;20052;-78
2023/12/10 11:10:26;;;;;;;6.10;2.53;;;;;;;;;;5053218;28;20053;-78
2023/12/10 11:12:54;;;;;;;12.77;2.95;;;;;;;;;;5070995;28;20497;-78
2023/12/10 11:15:21;;;;;;;6.93;2.67;;;;;;;;;;5089745;28;20083;-79
2023/12/10 11:17:59;;;;;;;5.35;1.50;;;;;;;;;;5056864;28;20516;-79
2023/12/10 11:20:37;;;;;;;5.68;1.60;;;;;;;;;;5036809;28;20049;-78
2023/12/10 11:23:08;;;;;;;6.65;1.80;;;;;;;;;;5080141;28;20094;-78
2023/12/10 11:25:35;;;;;;;7.50;1.98;;;;;;;;;;5062249;28;20056;-78
2023/12/10 11:28:11;;;;;;;5.75;2.05;;;;;;;;;;5044628;28;20144;-78
2023/12/10 11:30:39;;;;;;;8.38;2.20;;;;;;;;;;5052366;28;20052;-78
2023/12/10 11:33:07;;;;;;;10.63;2.25;;;;;;;;;;5039410;28;20052;-78
2023/12/10 11:35:34;;;;;;;5.38;1.65;;;;;;;;;;5036002;28;20110;-79
2023/12/10 11:38:02;;;;;;;7.28;2.17;;;;;;;;;;5037117;28;20092;-78
2023/12/10 11:40:29;;;;;;;7.60;1.30;;;;;;;;;;5052310;28;20061;-78
2023/12/10 11:43:06;;;;;;;9.00;1.27;;;;;;;;;;5069230;28;20056;-79
2023/12/10 11:45:33;;;;;;;6.68;1.30;;;;;;;;;;5052926;28;20461;-78
2023/12/10 11:48:01;;;;;;;4.80;1.38;;;;;;;;;;5070261;28;20049;-78
2023/12/10 11:50:31;;;;;;;3.80;1.30;;;;;;;;;;5051743;28;20419;-78
2023/12/10 11:52:58;;;;;;;7.07;1.88;;;;;;;;;;5051479;28;20061;-78
2023/12/10 11:55:25;;;;;;;6.18;2.35;;;;;;;;;;5034992;28;20053;-78
2023/12/10 11:57:52;;;;;;;6.82;1.90;;;;;;;;;;5034663;28;20144;-78
2023/12/10 12:00:19;;;;;;;8.15;1.45;;;;;;;;;;5068683;28;20045;-78
2023/12/10 12:02:46;;;;;;;4.15;1.30;;;;;;;;;;5055427;28;20086;-78
2023/12/10 12:05:14;;;;;;;7.18;1.23;;;;;;;;;;5035355;28;20053;-78
2023/12/10 12:07:43;;;;;;;8.07;1.42;;;;;;;;;;5036430;28;20052;-79
2023/12/10 12:10:14;;;;;;;7.55;1.20;;;;;;;;;;5072534;28;20483;-78
2023/12/10 12:12:47;;;;;;;10.30;1.27;;;;;;;;;;5052033;28;20061;-78
2023/12/10 12:15:15;;;;;;;7.07;1.73;;;;;;;;;;5028151;28;20075;-78
2023/12/10 12:17:43;;;;;;;10.82;2.28;;;;;;;;;;5051320;28;20229;-78
2023/12/10 12:20:13;;;;;;;8.35;1.75;;;;;;;;;;5072311;28;20059;-78
2023/12/10 12:22:40;;;;;;;7.10;1.15;;;;;;;;;;5071694;28;20465;-78
2023/12/10 12:25:07;;;;;;;11.02;2.00;;;;;;;;;;5054549;28;20584;-78
2023/12/10 12:27:34;;;;;;;9.65;2.10;;;;;;;;;;5034953;28;20507;-78
2023/12/10 12:30:01;;;;;;;9.98;2.40;;;;;;;;;;5052369;28;20060;-78
2023/12/10 12:32:27;;;;;;;4.65;1.25;;;;;;;;;;5088387;28;20057;-78
2023/12/10 12:35:01;;;;;;;6.82;1.85;;;;;;;;;;5071214;28;20065;-78
2023/12/10 12:37:28;;;;;;;6.25;1.63;;;;;;;;;;5065415;28;20063;-78
2023/12/10 12:39:55;;;;;;;11.40;1.88;;;;;;;;;;5062764;28;20469;-78
2023/12/10 12:42:26;;;;;;;10.75;1.80;;;;;;;;;;5088231;28;20076;-78
2023/12/10 12:44:53;;;;;;;7.18;2.17;;;;;;;;;;5036244;28;20057;-78
2023/12/10 12:47:20;;;;;;;5.40;1.25;;;;;;;;;;5087532;28;20135;-78
2023/12/10 12:49:46;;;;;;;6.40;1.42;;;;;;;;;;5051256;28;20060;-78
2023/12/10 12:52:14;;;;;;;7.28;1.55;;;;;;;;;;5068480;28;20056;-78
2023/12/10 12:54:41;;;;;;;10.48;2.50;;;;;;;;;;5053964;28;20084;-78
2023/12/10 12:57:10;;;;;;;11.80;2.10;;;;;;;;;;5074482;28;20422;-78
2023/12/10 12:59:37;;;;;;;6.28;2.20;;;;;;;;;;5038619;28;20053;-78
2023/12/10 13:02:04;;;;;;;10.98;3.33;;;;;;;;;;5056088;28;20048;-78
2023/12/10 13:04:31;;;;;;;9.25;1.38;;;;;;;;;;5090834;28;20056;-78
2023/12/10 13:06:58;;;;;;;11.25;3.10;;;;;;;;;;5072622;28;20412;-78
2023/12/10 13:09:25;;;;;;;10.20;2.97;;;;;;;;;;5054980;28;20053;-78
2023/12/10 13:11:53;;;;;;;8.63;2.08;;;;;;;;;;5036665;28;20081;-78
2023/12/10 13:14:20;;;;;;;8.32;2.60;;;;;;;;;;5091071;28;20067;-78
2023/12/10 13:16:46;;;;;;;8.82;2.47;;;;;;;;;;5074842;28;20121;-78
2023/12/10 13:19:13;;;;;;;6.25;1.95;;;;;;;;;;5054930;28;20057;-78
2023/12/10 13:21:42;;;;;;;7.35;1.55;;;;;;;;;;5050242;28;20442;-78
2023/12/10 13:24:09;;;;;;;11.48;2.58;;;;;;;;;;5087163;28;20053;-78
2023/12/10 13:26:36;;;;;;;5.43;1.98;;;;;;;;;;5077337;28;20059;-78
2023/12/10 13:29:02;;;;;;;10.73;2.88;;;;;;;;;;5073943;28;20056;-78
2023/12/10 13:31:29;;;;;;;8.95;2.28;;;;;;;;;;5090338;28;20048;-78
2023/12/10 13:33:56;;;;;;;11.13;2.13;;;;;;;;;;5089881;28;20056;-78
2023/12/10 13:36:23;;;;;;;11.43;3.33;;;;;;;;;;5069694;28;20059;-78
2023/12/10 13:38:50;;;;;;;9.50;1.70;;;;;;;;;;5070382;28;20139;-78
2023/12/10 13:41:16;;;;;;;7.03;1.58;;;;;;;;;;5036957;28;20059;-78
2023/12/10 13:43:43;;;;;;;7.20;1.80;;;;;;;;;;5066497;28;20124;-78
2023/12/10 13:46:10;;;;;;;5.20;1.20;;;;;;;;;;5048255;28;20056;-78
2023/12/10 13:48:37;;;;;;;7.72;2.20;;;;;;;;;;5073639;28;20052;-78
2023/12/10 13:51:04;;;;;;;7.95;1.63;;;;;;;;;;5073118;28;20647;-77
2023/12/10 13:53:31;;;;;;;6.47;1.90;;;;;;;;;;5106082;28;20056;-78
2023/12/10 13:55:58;;;;;;;6.60;1.70;;;;;;;;;;5097113;28;20060;-78
2023/12/10 13:58:25;;;;;;;7.97;2.17;;;;;;;;;;5116050;28;20074;-78
2023/12/10 14:00:51;;;;;;;10.43;2.20;;;;;;;;;;5104431;28;20056;-78
2023/12/10 14:03:18;;;;;;;7.10;1.35;;;;;;;;;;5104354;28;20494;-78
2023/12/10 14:05:45;;;;;;;4.20;1.10;;;;;;;;;;5037354;28;20099;-78
2023/12/10 14:08:12;;;;;;;5.28;1.77;;;;;;;;;;5053076;28;20522;-77
2023/12/10 14:10:39;;;;;;;10.07;2.53;;;;;;;;;;5072790;28;20502;-78
2023/12/10 14:13:06;;;;;;;7.78;1.92;;;;;;;;;;5072745;28;20080;-78
2023/12/10 14:15:33;;;;;;;9.13;2.45;;;;;;;;;;5035944;28;20057;-78
2023/12/10 14:18:00;;;;;;;6.53;2.30;;;;;;;;;;5054900;28;20052;-78
2023/12/10 14:20:27;;;;;;;8.88;2.45;;;;;;;;;;5089149;28;20059;-78
2023/12/10 14:22:54;;;;;;;9.25;2.72;;;;;;;;;;5088994;28;20098;-78
2023/12/10 14:25:20;;;;;;;6.97;2.10;;;;;;;;;;5088683;28;20439;-78
2023/12/10 14:27:47;;;;;;;11.63;2.20;;;;;;;;;;5088675;28;20486;-78
2023/12/10 14:30:14;;;;;;;7.80;1.92;;;;;;;;;;5051891;28;20507;-78
2023/12/10 14:32:41;;;;;;;6.13;2.53;;;;;;;;;;5047991;28;20523;-77
2023/12/10 14:35:08;;;;;;;5.20;2.10;;;;;;;;;;5071421;28;20127;-78
2023/12/10 14:37:35;;;;;;;5.05;1.80;;;;;;;;;;5092437;28;20456;-78